DTTZ/TOE METAR and TAF weather

Enter ICAO airport designator
Station Type Date Time Source
DTTZ METAR 2020/07/11 21:00 UTC NOAA

DTTZ 112100Z 09015KT CAVOK 34/18 Q1013


Station Type Date Time Source
DTTZ Decoded METAR 2020/07/11 21:00 UTC NOAA

Tozeur, Tunisia (DTTZ) 33-55N 008-06E 93M
Jul 11, 2020 - 05:00 PM EDT / 2020.07.11 2100 UTC
Wind: from the E (090 degrees) at 17 MPH (15 KT):0
Visibility: greater than 7 mile(s):0
Temperature: 93 F (34 C)
Heat index: 94.6 F (34.8 C):1
Dew Point: 64 F (18 C)
Relative Humidity: 38%
Pressure (altimeter): 29.91 in. Hg (1013 hPa)
ob: DTTZ 112100Z 09015KT CAVOK 34/18 Q1013
cycle: 21

Station Type Date Time Source
DTTZ TAF 2020/07/11 18:06 UTC NOAA

TAF DTTZ 111700Z 1118/1218 25006KT CAVOK
BECMG 1120/1122 10015KT
BECMG 1208/1210 11005KT

Example: see airport list